.
WxDataArchive / Data Records for 2012-10-17
2012-10-16 October 2012 2012-10-18

Data Records for Wednesday, 17 October 2012

Time	Temp	Chill	HIndex	Humid	Dewpt	 Wind 	HiWind	WindDir	Rain 	Barom 
-----	----	-----	------	-----	-----	------	------	-------	-----	----- 
00:00	56.6	56.6	56.6	58	42.0	0	2	90	0.00	29.728 
00:05	56.6	56.6	56.6	58	42.0	1	3	90	0.00	29.728 
00:10	56.6	56.6	56.6	58	42.0	0	4	90	0.00	29.728 
00:15	56.6	56.6	56.6	58	42.0	0	3	90	0.00	29.714 
00:20	56.6	56.6	56.6	58	42.0	1	3	90	0.00	29.714 
00:25	56.6	56.6	56.6	58	42.0	1	3	112	0.00	29.714 
00:30	56.6	56.6	56.6	58	42.0	0	1	112	0.00	29.710 
00:35	56.7	56.7	56.7	58	42.1	1	2	112	0.00	29.710 
00:40	56.7	56.7	56.7	58	42.1	1	3	68	0.00	29.710 
00:45	56.7	56.7	56.7	58	42.1	1	2	90	0.00	29.704 
00:50	56.7	56.7	56.7	59	42.5	0	2	90	0.00	29.704 
00:55	56.7	56.7	56.7	59	42.5	0	3	90	0.00	29.704 
01:00	56.9	56.9	56.9	58	42.3	0	2	90	0.00	29.709 
01:05	56.9	56.9	56.9	58	42.3	0	2	90	0.00	29.709 
01:10	57.0	57.0	57.0	59	42.8	0	1	90	0.00	29.709 
01:15	57.0	57.0	57.0	59	42.8	0	1	90	0.00	29.709 
01:20	57.0	57.0	57.0	60	43.3	0	1	90	0.00	29.709 
01:25	57.0	57.0	57.0	60	43.3	0	2	90	0.00	29.709 
01:30	57.0	57.0	57.0	59	42.8	0	2	90	0.00	29.708 
01:35	57.2	57.2	57.2	60	43.4	0	2	90	0.00	29.708 
01:40	57.2	57.2	57.2	59	43.0	0	1	90	0.00	29.708 
01:45	57.3	57.3	57.3	59	43.1	0	1	90	0.00	29.709 
01:50	57.5	57.5	57.5	59	43.3	0	1	90	0.00	29.709 
01:55	57.5	57.5	57.5	60	43.7	0	0	---	0.00	29.709 
02:00	57.5	57.5	57.5	60	43.7	0	1	90	0.00	29.710 
02:05	57.5	57.5	57.5	60	43.7	0	1	90	0.00	29.710 
02:10	57.5	57.5	57.5	60	43.7	0	1	90	0.00	29.710 
02:15	57.5	57.5	57.5	61	44.2	0	4	90	0.00	29.707 
02:20	57.6	57.6	57.6	61	44.2	0	3	90	0.00	29.707 
02:25	57.8	57.8	57.8	61	44.4	0	2	90	0.00	29.707 
02:30	57.8	57.8	57.8	62	44.9	0	4	248	0.00	29.714 
02:35	58.0	58.0	58.0	62	45.1	0	2	248	0.00	29.714 
02:40	58.0	58.0	58.0	63	45.5	0	3	90	0.00	29.714 
02:45	57.8	57.8	57.8	63	45.3	0	1	90	0.00	29.709 
02:50	57.8	57.8	57.8	64	45.7	0	2	90	0.00	29.709 
02:55	57.8	57.8	57.8	64	45.7	1	4	90	0.00	29.709 
03:00	57.8	57.8	57.8	64	45.7	1	6	90	0.00	29.706 
03:05	58.0	58.0	58.0	64	45.9	1	3	90	0.00	29.706 
03:10	58.0	58.0	58.0	64	45.9	0	1	90	0.00	29.706 
03:15	57.8	57.8	57.8	64	45.7	0	2	90	0.00	29.705 
03:20	57.8	57.8	57.8	64	45.7	0	1	90	0.00	29.705 
03:25	57.6	57.6	57.6	64	45.5	0	2	90	0.00	29.705 
03:30	57.6	57.6	57.6	64	45.5	0	1	45	0.00	29.704 
03:35	57.6	57.6	57.6	64	45.5	0	1	45	0.00	29.704 
03:40	57.6	57.6	57.6	64	45.5	0	1	45	0.00	29.704 
03:45	57.6	57.6	57.6	64	45.5	0	5	90	0.00	29.702 
03:50	57.6	57.6	57.6	64	45.5	0	2	90	0.00	29.702 
03:55	57.6	57.6	57.6	64	45.5	0	2	90	0.00	29.702 
04:00	57.6	57.6	57.6	65	45.9	0	1	180	0.00	29.698 
04:05	57.6	57.6	57.6	64	45.5	0	2	180	0.00	29.698 
04:10	57.6	57.6	57.6	64	45.5	0	2	158	0.00	29.698 
04:15	57.6	57.6	57.6	63	45.1	0	2	158	0.00	29.691 
04:20	57.6	57.6	57.6	63	45.1	0	1	158	0.00	29.691 
04:25	57.6	57.6	57.6	64	45.5	0	3	180	0.00	29.691 
04:30	57.6	57.6	57.6	64	45.5	0	2	68	0.00	29.689 
04:35	57.5	57.5	57.5	64	45.4	0	1	68	0.00	29.689 
04:40	57.5	57.5	57.5	64	45.4	0	1	68	0.00	29.689 
04:45	57.3	57.3	57.3	64	45.2	0	2	68	0.00	29.692 
04:50	57.2	57.2	57.2	65	45.5	0	2	68	0.00	29.692 
04:55	57.0	57.0	57.0	65	45.4	0	2	68	0.00	29.692 
05:00	56.9	56.9	56.9	65	45.3	0	2	68	0.00	29.690 
05:05	56.7	56.7	56.7	66	45.5	0	1	68	0.00	29.690 
05:10	56.6	56.6	56.6	67	45.8	0	2	68	0.00	29.690 
05:15	56.5	56.5	56.5	67	45.7	0	1	68	0.00	29.691 
05:20	56.5	56.5	56.5	67	45.7	0	1	68	0.00	29.691 
05:25	56.6	56.6	56.6	67	45.8	0	2	68	0.00	29.691 
05:30	56.7	56.7	56.7	67	45.9	0	3	68	0.00	29.692 
05:35	56.9	56.9	56.9	67	46.1	0	4	68	0.00	29.692 
05:40	57.0	57.0	57.0	67	46.2	0	2	68	0.00	29.692 
05:45	57.0	57.0	57.0	67	46.2	0	3	68	0.00	29.691 
05:50	57.0	57.0	57.0	67	46.2	0	2	68	0.00	29.691 
05:55	56.9	56.9	56.9	68	46.4	0	1	68	0.00	29.691 
06:00	56.9	56.9	56.9	68	46.4	0	1	68	0.00	29.692 
06:05	56.7	56.7	56.7	68	46.3	0	1	68	0.00	29.692 
06:10	56.6	56.6	56.6	69	46.5	0	2	68	0.00	29.692 
06:15	56.6	56.6	56.6	69	46.5	0	4	68	0.00	29.692 
06:20	56.5	56.5	56.5	69	46.5	0	1	90	0.00	29.692 
06:25	56.3	56.3	56.3	69	46.3	0	0	---	0.00	29.692 
06:30	56.0	56.0	56.0	70	46.4	0	0	---	0.00	29.700 
06:35	55.6	55.6	55.6	71	46.3	0	0	---	0.00	29.700 
06:40	55.3	55.3	55.3	73	46.8	0	3	90	0.00	29.700 
06:45	55.1	55.1	55.1	73	46.6	0	0	---	0.00	29.698 
06:50	55.0	55.0	55.0	73	46.5	0	0	---	0.00	29.698 
06:55	54.8	54.8	54.8	74	46.7	0	2	90	0.00	29.698 
07:00	55.0	55.0	55.0	74	46.9	0	3	90	0.00	29.694 
07:05	55.0	55.0	55.0	74	46.9	0	1	90	0.00	29.694 
07:10	55.0	55.0	55.0	74	46.9	0	1	90	0.00	29.694 
07:15	55.0	55.0	55.0	74	46.9	0	3	90	0.00	29.691 
07:20	54.8	54.8	54.8	74	46.7	0	2	90	0.00	29.691 
07:25	54.8	54.8	54.8	74	46.7	1	3	90	0.00	29.691 
07:30	54.7	54.7	54.7	74	46.6	0	2	90	0.00	29.684 
07:35	54.5	54.5	54.5	75	46.7	0	1	90	0.00	29.684 
07:40	54.4	54.4	54.4	75	46.6	0	2	90	0.00	29.684 
07:45	54.2	54.2	54.2	76	46.8	0	2	90	0.00	29.684 
07:50	53.9	53.9	53.9	76	46.5	0	2	90	0.00	29.684 
07:55	53.8	53.8	53.8	77	46.8	0	2	90	0.00	29.684 
08:00	53.8	53.8	53.8	77	46.8	0	2	90	0.00	29.686 
08:05	53.6	53.6	53.6	77	46.6	0	2	90	0.00	29.686 
08:10	53.6	53.6	53.6	77	46.6	0	3	90	0.00	29.686 
08:15	53.6	53.6	53.6	78	46.9	1	3	90	0.00	29.688 
08:20	53.6	53.6	53.6	78	46.9	0	2	90	0.00	29.688 
08:25	53.6	53.6	53.6	78	46.9	0	2	90	0.00	29.688 
08:30	53.8	53.8	53.8	78	47.1	0	2	90	0.00	29.689 
08:35	53.8	53.8	53.8	78	47.1	0	2	90	0.00	29.689 
08:40	53.9	53.9	53.9	78	47.2	1	4	68	0.00	29.689 
08:45	54.1	54.1	54.1	77	47.0	0	5	68	0.00	29.694 
08:50	54.2	54.2	54.2	77	47.1	0	3	68	0.00	29.694 
08:55	54.4	54.4	54.4	77	47.3	0	4	68	0.00	29.694 
09:00	54.7	54.7	54.7	77	47.6	0	2	112	0.00	29.695 
09:05	55.1	55.1	55.1	76	47.7	1	3	112	0.00	29.695 
09:10	55.4	55.4	55.4	75	47.6	1	3	112	0.00	29.695 
09:15	55.9	55.9	55.9	74	47.7	1	6	90	0.00	29.695 
09:20	56.0	56.0	56.0	73	47.5	1	4	90	0.00	29.695 
09:25	56.5	56.5	56.5	73	47.9	1	4	68	0.00	29.695 
09:30	56.6	56.6	56.6	72	47.7	1	4	292	0.00	29.698 
09:35	56.9	56.9	56.9	71	47.6	1	6	112	0.00	29.698 
09:40	57.3	57.3	57.3	71	48.0	0	3	248	0.00	29.698 
09:45	57.6	57.6	57.6	70	47.9	0	3	248	0.00	29.696 
09:50	58.0	58.0	58.0	70	48.3	1	3	68	0.00	29.696 
09:55	58.4	58.4	58.4	69	48.3	1	4	68	0.00	29.696 
10:00	58.9	58.9	58.9	68	48.4	1	4	248	0.00	29.696 
10:05	59.5	59.5	59.5	66	48.1	1	7	248	0.00	29.696 
10:10	60.4	60.4	60.4	65	48.6	1	4	90	0.00	29.696 
10:15	61.0	61.0	61.0	64	48.7	0	3	270	0.00	29.691 
10:20	61.6	61.6	61.6	62	48.4	1	5	248	0.00	29.691 
10:25	62.1	62.1	62.1	62	48.9	0	3	248	0.00	29.691 
10:30	62.7	62.7	62.7	61	49.1	1	4	248	0.00	29.687 
10:35	63.1	63.1	63.1	59	48.5	1	3	270	0.00	29.687 
10:40	63.5	63.5	63.5	59	48.9	0	2	270	0.00	29.687 
10:45	64.0	64.0	64.0	58	48.9	1	7	270	0.00	29.685 
10:50	64.3	64.3	64.3	58	49.2	1	4	248	0.00	29.685 
10:55	64.7	64.7	64.7	57	49.1	1	4	248	0.00	29.685 
11:00	65.0	65.0	65.0	56	48.9	2	6	112	0.00	29.675 
11:05	65.2	65.2	65.2	57	49.6	1	5	248	0.00	29.675 
11:10	65.8	65.8	65.8	57	50.1	0	4	90	0.00	29.675 
11:15	66.3	66.3	66.3	54	49.1	2	5	90	0.00	29.669 
11:20	66.3	66.3	66.3	55	49.6	2	5	248	0.00	29.669 
11:25	66.6	66.6	66.6	54	49.4	2	5	90	0.00	29.669 
11:30	66.9	66.9	66.9	54	49.7	1	5	90	0.00	29.659 
11:35	67.4	67.4	67.4	52	49.2	2	7	270	0.00	29.659 
11:40	67.8	67.8	67.8	50	48.5	2	5	248	0.00	29.659 
11:45	68.1	68.1	68.1	50	48.7	2	5	90	0.00	29.655 
11:50	68.3	68.3	68.3	49	48.4	2	6	248	0.00	29.655 
11:55	68.6	68.6	68.6	48	48.1	3	7	45	0.00	29.655 
12:00	68.9	68.9	68.9	48	48.4	1	5	45	0.00	29.653 
12:05	69.3	69.3	69.3	50	49.8	2	6	248	0.00	29.653 
12:10	69.6	69.6	69.6	46	47.9	2	10	248	0.00	29.653 
12:15	69.4	69.4	69.4	46	47.7	2	9	248	0.00	29.652 
12:20	69.3	69.3	69.3	46	47.6	2	6	90	0.00	29.652 
12:25	69.3	69.3	69.3	47	48.2	2	5	68	0.00	29.652 
12:30	69.6	69.6	69.6	45	47.3	2	6	292	0.00	29.643 
12:35	70.1	70.1	70.1	44	47.2	2	6	248	0.00	29.643 
12:40	70.3	70.3	70.3	44	47.3	2	7	248	0.00	29.643 
12:45	70.4	70.4	70.4	44	47.4	3	7	248	0.00	29.638 
12:50	70.8	70.8	70.8	44	47.8	1	5	248	0.00	29.638 
12:55	70.8	70.8	70.8	43	47.2	3	10	248	0.00	29.638 
13:00	71.1	71.1	71.1	44	48.1	2	7	270	0.00	29.633 
13:05	71.1	71.1	71.1	43	47.5	1	5	248	0.00	29.633 
13:10	71.3	71.3	71.3	43	47.6	2	7	112	0.00	29.633 
13:15	71.3	71.3	71.3	40	45.7	3	11	248	0.00	29.627 
13:20	71.6	71.6	71.6	42	47.3	2	10	248	0.00	29.627 
13:25	72.0	72.0	72.0	41	47.0	2	7	248	0.00	29.627 
13:30	72.1	72.1	72.1	41	47.1	2	6	270	0.00	29.617 
13:35	72.5	72.5	72.5	39	46.1	2	10	68	0.00	29.617 
13:40	72.7	72.7	72.7	38	45.6	3	7	270	0.00	29.617 
13:45	72.5	72.5	72.5	38	45.4	2	9	248	0.00	29.605 
13:50	72.3	72.3	72.3	40	46.6	2	7	248	0.00	29.605 
13:55	72.5	72.5	72.5	39	46.1	3	8	248	0.00	29.605 
14:00	72.8	72.8	72.8	38	45.7	3	9	248	0.00	29.600 
14:05	73.0	73.0	73.0	39	46.6	2	6	248	0.00	29.600 
14:10	72.7	72.7	72.7	38	45.6	3	10	248	0.00	29.600 
14:15	72.0	72.0	72.0	38	45.0	2	5	90	0.00	29.597 
14:20	71.6	71.6	71.6	39	45.3	2	7	248	0.00	29.597 
14:25	71.6	71.6	71.6	40	46.0	2	10	270	0.00	29.597 
14:30	72.3	72.3	72.3	42	47.9	1	3	248	0.00	29.589 
14:35	73.2	73.2	73.2	40	47.4	2	7	248	0.00	29.589 
14:40	73.5	73.5	73.5	38	46.3	3	10	248	0.00	29.589 
14:45	73.9	73.9	73.9	38	46.7	3	12	292	0.00	29.586 
14:50	73.7	73.7	73.7	37	45.8	2	7	248	0.00	29.586 
14:55	73.7	73.7	73.7	37	45.8	2	9	248	0.00	29.586 
15:00	73.7	73.7	73.7	39	47.2	3	7	248	0.00	29.585 
15:05	73.7	73.7	73.7	37	45.8	3	9	270	0.00	29.585 
15:10	73.9	73.9	73.9	36	45.2	3	15	270	0.00	29.585 
15:15	73.5	73.5	73.5	38	46.3	2	5	45	0.00	29.585 
15:20	73.2	73.2	73.2	39	46.7	3	16	270	0.00	29.585 
15:25	72.8	72.8	72.8	38	45.7	3	17	292	0.00	29.585 
15:30	72.8	72.8	72.8	40	47.1	1	4	248	0.00	29.586 
15:35	72.8	72.8	72.8	39	46.4	2	5	248	0.00	29.586 
15:40	72.7	72.7	72.7	41	47.6	1	4	248	0.00	29.586 
15:45	72.5	72.5	72.5	41	47.4	1	5	292	0.00	29.579 
15:50	72.3	72.3	72.3	39	45.9	3	7	270	0.00	29.579 
15:55	72.3	72.3	72.3	40	46.6	1	6	248	0.00	29.579 
16:00	72.1	72.1	72.1	40	46.4	2	10	292	0.00	29.573 
16:05	71.8	71.8	71.8	41	46.8	2	6	248	0.00	29.573 
16:10	71.8	71.8	71.8	41	46.8	2	7	248	0.00	29.573 
16:15	72.0	72.0	72.0	43	48.3	1	5	270	0.00	29.568 
16:20	72.0	72.0	72.0	41	47.0	2	7	22	0.00	29.568 
16:25	72.0	72.0	72.0	41	47.0	3	10	90	0.00	29.568 
16:30	72.0	72.0	72.0	42	47.6	1	3	90	0.00	29.557 
16:35	71.8	71.8	71.8	41	46.8	2	7	248	0.00	29.557 
16:40	71.8	71.8	71.8	42	47.5	1	4	45	0.00	29.557 
16:45	71.6	71.6	71.6	40	46.0	2	6	90	0.00	29.556 
16:50	71.5	71.5	71.5	40	45.9	2	9	68	0.00	29.556 
16:55	71.1	71.1	71.1	40	45.5	2	6	68	0.00	29.556 
17:00	71.1	71.1	71.1	41	46.2	2	7	90	0.00	29.548 
17:05	70.9	70.9	70.9	42	46.6	2	6	68	0.00	29.548 
17:10	70.8	70.8	70.8	42	46.6	1	3	248	0.00	29.548 
17:15	70.6	70.6	70.6	43	47.0	1	4	248	0.00	29.552 
17:20	70.4	70.4	70.4	43	46.8	1	3	248	0.00	29.552 
17:25	70.4	70.4	70.4	42	46.2	1	4	248	0.00	29.552 
17:30	70.1	70.1	70.1	43	46.6	2	9	112	0.00	29.564 
17:35	68.9	68.9	68.9	49	48.9	3	10	248	0.00	29.564 
17:40	67.9	67.9	67.9	52	49.6	1	4	68	0.00	29.564 
17:45	67.1	67.1	67.1	54	49.9	1	4	68	0.00	29.570 
17:50	66.4	66.4	66.4	55	49.7	1	4	90	0.00	29.570 
17:55	66.0	66.0	66.0	57	50.3	0	1	90	0.00	29.570 
18:00	65.6	65.6	65.6	59	50.9	0	2	90	0.00	29.571 
18:05	65.2	65.2	65.2	62	51.8	1	2	90	0.00	29.571 
18:10	64.2	64.2	64.2	67	53.0	0	2	90	0.01	29.571 
18:15	63.1	63.1	63.1	72	53.9	0	2	90	0.02	29.588 
18:20	61.8	61.8	61.8	76	54.1	1	3	90	0.02	29.588 
18:25	60.9	60.9	60.9	79	54.3	1	3	90	0.01	29.588 
18:30	60.1	60.1	60.1	81	54.2	1	9	292	0.02	29.599 
18:35	59.6	59.6	59.6	83	54.4	1	3	248	0.01	29.599 
18:40	59.2	59.2	59.2	84	54.4	0	4	248	0.01	29.599 
18:45	58.9	58.9	58.9	86	54.7	0	2	248	0.01	29.600 
18:50	58.7	58.7	58.7	87	54.8	1	3	248	0.00	29.600 
18:55	58.6	58.6	58.6	88	55.1	1	6	248	0.01	29.600 
19:00	58.4	58.4	58.4	88	54.9	0	2	270	0.00	29.606 
19:05	58.3	58.3	58.3	88	54.8	1	5	248	0.02	29.606 
19:10	58.1	58.1	58.1	89	54.9	0	3	248	0.00	29.606 
19:15	58.0	58.0	58.0	89	54.8	0	3	248	0.01	29.615 
19:20	58.0	58.0	58.0	90	55.1	0	2	22	0.01	29.615 
19:25	57.8	57.8	57.8	90	54.9	1	4	248	0.02	29.615 
19:30	57.6	57.6	57.6	90	54.7	2	4	90	0.02	29.602 
19:35	57.6	57.6	57.6	91	55.0	2	7	90	0.02	29.602 
19:40	57.5	57.5	57.5	91	54.9	3	6	90	0.03	29.602 
19:45	57.5	57.5	57.5	91	54.9	1	3	112	0.03	29.588 
19:50	57.5	57.5	57.5	91	54.9	2	5	90	0.01	29.588 
19:55	57.5	57.5	57.5	92	55.2	1	3	90	0.01	29.588 
20:00	57.5	57.5	57.5	92	55.2	1	4	90	0.02	29.586 
20:05	57.5	57.5	57.5	92	55.2	1	4	90	0.04	29.586 
20:10	57.5	57.5	57.5	92	55.2	1	4	112	0.02	29.586 
20:15	57.5	57.5	57.5	92	55.2	1	3	90	0.00	29.580 
20:20	57.5	57.5	57.5	92	55.2	1	3	112	0.02	29.580 
20:25	57.5	57.5	57.5	92	55.2	1	2	112	0.00	29.580 
20:30	57.5	57.5	57.5	92	55.2	1	5	90	0.00	29.555 
20:35	57.5	57.5	57.5	92	55.2	1	5	68	0.00	29.555 
20:40	57.5	57.5	57.5	92	55.2	1	4	68	0.00	29.555 
20:45	57.5	57.5	57.5	92	55.2	1	4	68	0.00	29.541 
20:50	57.5	57.5	57.5	91	54.9	1	3	68	0.00	29.541 
20:55	57.5	57.5	57.5	91	54.9	1	5	90	0.00	29.541 
21:00	57.6	57.6	57.6	90	54.7	2	5	68	0.00	29.527 
21:05	57.6	57.6	57.6	89	54.4	2	7	112	0.00	29.527 
21:10	58.0	58.0	58.0	88	54.5	2	5	90	0.01	29.527 
21:15	58.1	58.1	58.1	88	54.6	2	5	90	0.02	29.514 
21:20	58.1	58.1	58.1	88	54.6	2	9	90	0.00	29.514 
21:25	58.3	58.3	58.3	86	54.1	3	13	90	0.00	29.514 
21:30	58.4	58.4	58.4	86	54.2	2	7	90	0.00	29.506 
21:35	58.4	58.4	58.4	85	53.9	1	4	112	0.00	29.506 
21:40	58.4	58.4	58.4	85	53.9	1	5	112	0.00	29.506 
21:45	58.4	58.4	58.4	85	53.9	1	4	68	0.00	29.500 
21:50	58.6	58.6	58.6	85	54.1	3	6	112	0.01	29.500 
21:55	58.7	58.7	58.7	84	53.9	2	6	90	0.00	29.500 
22:00	58.9	58.9	58.9	84	54.1	3	6	90	0.00	29.484 
22:05	59.0	59.0	59.0	83	53.8	2	9	90	0.00	29.484 
22:10	59.3	59.3	59.3	81	53.5	3	10	68	0.00	29.484 
22:15	59.5	59.5	59.5	81	53.7	3	10	112	0.00	29.473 
22:20	59.6	59.6	59.6	80	53.4	2	7	90	0.00	29.473 
22:25	59.8	59.8	59.8	80	53.6	2	5	112	0.00	29.473 
22:30	59.9	59.9	59.9	79	53.4	3	6	112	0.00	29.467 
22:35	60.1	60.1	60.1	78	53.2	2	7	45	0.00	29.467 
22:40	60.4	60.4	60.4	78	53.5	2	7	112	0.00	29.467 
22:45	60.5	60.5	60.5	77	53.2	2	6	90	0.00	29.460 
22:50	60.5	60.5	60.5	76	52.9	2	7	90	0.00	29.460 
22:55	60.9	60.9	60.9	75	52.9	2	6	90	0.00	29.460 
23:00	61.0	61.0	61.0	74	52.6	3	6	90	0.00	29.461 
23:05	61.3	61.3	61.3	73	52.6	3	7	90	0.00	29.461 
23:10	61.6	61.6	61.6	71	52.1	2	6	90	0.00	29.461 
23:15	61.8	61.8	61.8	70	51.9	2	9	90	0.00	29.458 
23:20	62.1	62.1	62.1	70	52.2	2	7	90	0.00	29.458 
23:25	62.3	62.3	62.3	69	52.0	2	7	90	0.00	29.458 
23:30	62.4	62.4	62.4	68	51.7	2	7	112	0.00	29.455 
23:35	62.6	62.6	62.6	68	51.9	3	6	90	0.00	29.455 
23:40	62.6	62.6	62.6	68	51.9	2	5	112	0.00	29.455 
23:45	62.7	62.7	62.7	68	52.0	3	10	90	0.00	29.460 
23:50	62.7	62.7	62.7	68	52.0	2	9	90	0.00	29.460 
23:55	62.6	62.6	62.6	69	52.3	1	6	68	0.00	29.460 

CoCoRaHS
IN-AL-39
A2 Web Hosting
Creative Commons License
GoDaddy
search engine by freefind advanced

loaded 2018-11-21 01:19:46 • last modified 2010-11-18 10:43:29
Privacy PolicyDisclaimer
• wx.awcolley.com is powered by PmWiki v.2002016 •
• all content (unless otherwise noted) © 2018 A W Colley